Time;durP1;ratioP1;P1;durP2;ratioP2;P2;SDS_P1;SDS_P2;PMS_P1;PMS_P2;Temp;Humidity;BMP_temperature;BMP_pressure;BME280_temperature;BME280_humidity;BME280_pressure;Samples;Min_cycle;Max_cycle;Signal;HPM_P1;HPM_P2
2023/03/29 00:00:19;;;;;;;9.67;5.10;;;6.60;78.40;;;;;;5052485;28;20440;-76
2023/03/29 00:02:47;;;;;;;9.30;6.10;;;6.50;78.50;;;;;;5051885;28;20900;-76
2023/03/29 00:05:13;;;;;;;9.02;5.53;;;6.60;79.40;;;;;;5052112;28;20385;-76
2023/03/29 00:07:40;;;;;;;8.65;5.32;;;6.60;77.80;;;;;;5052118;28;20799;-76
2023/03/29 00:10:08;;;;;;;7.15;5.00;;;6.60;78.30;;;;;;5052384;28;20385;-76
2023/03/29 00:12:35;;;;;;;8.53;5.30;;;6.70;76.50;;;;;;5052056;28;20421;-76
2023/03/29 00:15:01;;;;;;;12.52;6.00;;;6.60;76.60;;;;;;5053238;28;20417;-76
2023/03/29 00:17:28;;;;;;;13.10;6.10;;;6.40;77.00;;;;;;5056983;28;20719;-76
2023/03/29 00:19:53;;;;;;;8.75;5.70;;;6.40;78.90;;;;;;5050060;28;20416;-76
2023/03/29 00:22:20;;;;;;;10.90;5.37;;;6.50;77.30;;;;;;5057541;28;20708;-76
2023/03/29 00:24:47;;;;;;;7.55;5.53;;;6.40;78.40;;;;;;5039461;28;20412;-76
2023/03/29 00:27:14;;;;;;;11.15;5.85;;;6.60;76.30;;;;;;5067619;28;20389;-77
2023/03/29 00:29:40;;;;;;;12.15;5.63;;;6.40;77.70;;;;;;5044634;28;20447;-76
2023/03/29 00:32:06;;;;;;;8.90;5.20;;;6.60;75.30;;;;;;5057351;28;20381;-76
2023/03/29 00:34:34;;;;;;;10.85;5.20;;;6.70;72.40;;;;;;5051466;28;20419;-75
2023/03/29 00:37:01;;;;;;;8.82;5.20;;;6.70;75.90;;;;;;5051560;28;20382;-76
2023/03/29 00:39:28;;;;;;;9.63;5.20;;;6.70;73.90;;;;;;5051553;28;20377;-76
2023/03/29 00:41:54;;;;;;;8.38;4.78;;;6.70;73.80;;;;;;5033195;28;20390;-76
2023/03/29 00:44:55;;;;;;;8.57;4.82;;;6.60;72.10;;;;;;5051601;28;20397;-76
2023/03/29 00:47:42;;;;;;;8.38;4.80;;;6.60;75.50;;;;;;5010181;28;20390;-76
2023/03/29 00:50:15;;;;;;;6.00;4.28;;;6.60;73.50;;;;;;5051280;28;20378;-76
2023/03/29 00:52:43;;;;;;;9.40;5.10;;;6.60;73.80;;;;;;5033453;28;20417;-76
2023/03/29 00:55:17;;;;;;;8.05;4.40;;;6.60;71.60;;;;;;5051119;28;20427;-76
2023/03/29 00:57:45;;;;;;;7.47;4.70;;;6.60;69.30;;;;;;5051203;28;20555;-75
2023/03/29 01:00:17;;;;;;;9.07;5.20;;;6.60;70.30;;;;;;5051205;28;20468;-76
2023/03/29 01:02:44;;;;;;;7.47;4.60;;;6.60;71.20;;;;;;5051877;28;20920;-76
2023/03/29 01:05:18;;;;;;;8.23;4.90;;;6.50;71.10;;;;;;5051754;28;20389;-76
2023/03/29 01:07:57;;;;;;;8.18;4.97;;;6.50;75.40;;;;;;5033858;28;20401;-76
2023/03/29 01:10:50;;;;;;;9.25;5.22;;;6.70;71.60;;;;;;5052331;28;20393;-76
2023/03/29 01:13:25;;;;;;;9.95;4.80;;;6.80;68.80;;;;;;5034617;28;20480;-76
2023/03/29 01:15:53;;;;;;;9.00;4.47;;;6.90;70.20;;;;;;5050933;28;20412;-76
2023/03/29 01:18:21;;;;;;;7.70;4.70;;;6.70;68.20;;;;;;5050874;28;20731;-76
2023/03/29 01:21:08;;;;;;;7.68;4.75;;;6.80;69.00;;;;;;5051058;28;20395;-76
2023/03/29 01:23:53;;;;;;;9.13;4.80;;;6.80;67.10;;;;;;5050890;28;20399;-76
2023/03/29 01:26:35;;;;;;;6.13;4.50;;;6.80;67.10;;;;;;5050720;28;20410;-75
2023/03/29 01:29:12;;;;;;;8.00;5.10;;;6.70;68.30;;;;;;5032796;28;20427;-75
2023/03/29 01:31:43;;;;;;;7.72;4.70;;;6.60;68.20;;;;;;5032538;28;20393;-75
2023/03/29 01:34:37;;;;;;;5.90;4.60;;;6.70;69.50;;;;;;5050785;28;20742;-75
2023/03/29 01:37:11;;;;;;;8.50;5.07;;;6.70;67.00;;;;;;5050548;28;20421;-76
2023/03/29 01:39:36;;;;;;;7.70;4.90;;;6.70;68.50;;;;;;5051522;28;20837;-76
2023/03/29 01:42:17;;;;;;;6.65;4.90;;;6.70;68.70;;;;;;5051603;28;20388;-76
2023/03/29 01:45:06;;;;;;;9.30;5.18;;;6.80;69.40;;;;;;5050624;28;20377;-76
2023/03/29 01:47:42;;;;;;;11.68;5.10;;;6.90;68.80;;;;;;5051011;28;20807;-77
2023/03/29 01:50:16;;;;;;;7.85;4.75;;;7.00;66.80;;;;;;5051913;28;20430;-75
2023/03/29 01:53:03;;;;;;;5.63;4.57;;;6.80;65.50;;;;;;5070189;28;20416;-77
2023/03/29 01:55:43;;;;;;;6.47;4.80;;;6.90;64.80;;;;;;5037343;28;20421;-76
2023/03/29 01:58:12;;;;;;;6.80;4.70;;;6.90;64.80;;;;;;5050575;28;20394;-76
2023/03/29 02:00:40;;;;;;;10.38;5.03;;;6.80;64.70;;;;;;5032458;28;20397;-75
2023/03/29 02:03:08;;;;;;;7.88;4.90;;;6.80;66.50;;;;;;5050037;28;20544;-75
2023/03/29 02:05:35;;;;;;;9.40;4.53;;;6.80;67.40;;;;;;5050260;28;20402;-75
2023/03/29 02:08:04;;;;;;;6.57;4.72;;;6.80;64.10;;;;;;5050306;28;20893;-75
2023/03/29 02:10:32;;;;;;;7.28;4.72;;;6.80;64.40;;;;;;5050298;28;20434;-75
2023/03/29 02:12:58;;;;;;;5.40;4.33;;;6.90;63.90;;;;;;5049832;28;20386;-75
2023/03/29 02:15:24;;;;;;;6.78;4.55;;;7.00;62.70;;;;;;5050223;28;20572;-76
2023/03/29 02:17:50;;;;;;;8.75;4.70;;;7.00;66.30;;;;;;5053958;28;20385;-77
2023/03/29 02:20:37;;;;;;;6.85;4.75;;;7.10;64.90;;;;;;5054490;28;20777;-76
2023/03/29 02:23:07;;;;;;;7.75;4.85;;;7.20;63.10;;;;;;5053980;28;20526;-77
2023/03/29 02:25:34;;;;;;;7.18;4.75;;;7.20;63.80;;;;;;5055423;28;20881;-79
2023/03/29 02:28:00;;;;;;;6.20;4.22;;;7.20;61.10;;;;;;5036740;28;20870;-75
2023/03/29 02:30:48;;;;;;;8.15;4.82;;;7.20;61.20;;;;;;5054118;28;20385;-76
2023/03/29 02:33:22;;;;;;;9.65;5.00;;;7.40;58.20;;;;;;5054493;28;20377;-76
2023/03/29 02:35:55;;;;;;;5.88;4.40;;;7.30;58.10;;;;;;5054495;28;20439;-76
2023/03/29 02:38:25;;;;;;;8.88;5.20;;;7.10;62.60;;;;;;5054486;28;20385;-76
2023/03/29 02:40:51;;;;;;;8.20;4.65;;;7.00;63.20;;;;;;5035846;28;20431;-77
2023/03/29 02:43:18;;;;;;;6.25;4.15;;;7.20;64.50;;;;;;5053769;28;20403;-76
2023/03/29 02:45:45;;;;;;;8.13;4.60;;;7.30;62.50;;;;;;5054174;28;20396;-76
2023/03/29 02:48:16;;;;;;;7.82;4.93;;;7.20;61.50;;;;;;5054881;28;20389;-76
2023/03/29 02:50:45;;;;;;;10.30;5.03;;;7.10;61.60;;;;;;5056527;28;20447;-77
2023/03/29 02:53:19;;;;;;;10.98;5.35;;;7.20;60.10;;;;;;5055623;28;20389;-75
2023/03/29 02:55:45;;;;;;;7.30;5.00;;;7.20;60.40;;;;;;5055733;28;20396;-77
2023/03/29 02:58:12;;;;;;;7.40;4.90;;;7.10;62.20;;;;;;5036641;28;20459;-77
2023/03/29 03:00:43;;;;;;;9.02;5.38;;;7.10;62.40;;;;;;5054019;28;20400;-77
2023/03/29 03:03:10;;;;;;;8.23;5.07;;;7.10;62.20;;;;;;5053933;28;20450;-75
2023/03/29 03:05:37;;;;;;;8.27;5.28;;;7.00;62.70;;;;;;5054336;28;20385;-76
2023/03/29 03:08:03;;;;;;;9.23;5.35;;;7.00;62.70;;;;;;5054473;28;20393;-76
2023/03/29 03:10:31;;;;;;;11.30;5.07;;;7.10;62.90;;;;;;5055195;28;20788;-76
2023/03/29 03:12:57;;;;;;;9.30;4.90;;;7.20;63.80;;;;;;5037676;28;20460;-76
2023/03/29 03:15:23;;;;;;;10.82;5.00;;;7.40;60.90;;;;;;5071975;22;20479;-70
2023/03/29 03:17:48;;;;;;;7.82;4.70;;;7.20;62.60;;;;;;5051486;28;20532;-71
2023/03/29 03:20:14;;;;;;;13.07;5.37;;;7.40;61.30;;;;;;5053156;28;20385;-70
2023/03/29 03:22:47;;;;;;;10.40;5.20;;;7.40;61.30;;;;;;5052723;28;20405;-71
2023/03/29 03:25:19;;;;;;;7.75;4.97;;;7.40;62.10;;;;;;5052965;28;20750;-70
2023/03/29 03:27:45;;;;;;;7.53;5.25;;;7.40;61.70;;;;;;5052649;28;20415;-70
2023/03/29 03:30:11;;;;;;;9.60;5.10;;;7.30;62.80;;;;;;5052684;28;20439;-71
2023/03/29 03:32:37;;;;;;;10.77;5.30;;;7.40;62.00;;;;;;5052414;28;20413;-70
2023/03/29 03:35:04;;;;;;;8.80;5.25;;;7.40;62.60;;;;;;5052324;28;20953;-69
2023/03/29 03:37:30;;;;;;;7.53;5.27;;;7.40;62.20;;;;;;5052615;28;20443;-70
2023/03/29 03:39:56;;;;;;;8.95;4.80;;;7.40;62.20;;;;;;5052453;28;20393;-71
2023/03/29 03:42:22;;;;;;;7.97;4.95;;;7.50;62.60;;;;;;5052748;28;20804;-70
2023/03/29 03:44:48;;;;;;;8.23;5.03;;;7.40;62.40;;;;;;5052963;28;20938;-70
2023/03/29 03:47:14;;;;;;;10.73;4.90;;;7.40;62.40;;;;;;5052527;28;20397;-71
2023/03/29 03:49:39;;;;;;;10.85;5.32;;;7.50;59.90;;;;;;5052366;28;20386;-71
2023/03/29 03:52:06;;;;;;;8.77;5.22;;;7.50;59.40;;;;;;5051888;28;20850;-69
2023/03/29 03:54:32;;;;;;;9.67;5.63;;;7.60;58.30;;;;;;5052248;28;20381;-70
2023/03/29 03:56:58;;;;;;;10.63;5.60;;;7.50;60.20;;;;;;5051981;28;20742;-70
2023/03/29 03:59:23;;;;;;;11.27;6.25;;;7.40;60.60;;;;;;5052104;28;20378;-71
2023/03/29 04:01:49;;;;;;;11.23;5.68;;;7.40;62.60;;;;;;5051759;28;20439;-71
2023/03/29 04:04:15;;;;;;;8.02;5.75;;;7.40;62.90;;;;;;5052042;28;20401;-70
2023/03/29 04:06:41;;;;;;;9.48;5.78;;;7.40;63.40;;;;;;5050917;28;20476;-71
2023/03/29 04:09:08;;;;;;;16.83;5.93;;;7.40;63.90;;;;;;5052165;28;20827;-71
2023/03/29 04:11:34;;;;;;;12.55;5.60;;;7.50;63.70;;;;;;5051844;28;20381;-69
2023/03/29 04:14:00;;;;;;;8.38;5.47;;;7.60;61.60;;;;;;5051828;28;20445;-70
2023/03/29 04:16:26;;;;;;;9.65;6.00;;;7.60;62.50;;;;;;5051616;28;20408;-69
2023/03/29 04:18:52;;;;;;;9.70;5.47;;;7.60;63.20;;;;;;5051741;28;20397;-70
2023/03/29 04:21:17;;;;;;;13.57;6.00;;;7.80;61.70;;;;;;5051585;28;20381;-70
2023/03/29 04:23:45;;;;;;;9.03;6.30;;;7.80;62.50;;;;;;5051633;28;20478;-71
2023/03/29 04:26:12;;;;;;;8.40;5.93;;;7.70;66.10;;;;;;5051426;28;20397;-69
2023/03/29 04:28:38;;;;;;;11.65;5.60;;;7.80;64.70;;;;;;5051164;28;20387;-71
2023/03/29 04:31:07;;;;;;;12.27;6.00;;;7.80;68.30;;;;;;5051120;28;20476;-70
2023/03/29 04:33:33;;;;;;;11.15;6.90;;;7.60;74.60;;;;;;5051569;28;20382;-70
2023/03/29 04:35:58;;;;;;;12.40;6.70;;;7.60;78.70;;;;;;5051464;28;20397;-70
2023/03/29 04:38:25;;;;;;;14.90;7.63;;;7.50;84.30;;;;;;5051349;28;20430;-69
2023/03/29 04:40:51;;;;;;;15.93;7.43;;;7.40;87.80;;;;;;5051244;28;20382;-71
2023/03/29 04:43:16;;;;;;;10.10;6.60;;;7.40;91.70;;;;;;5051717;28;20408;-70
2023/03/29 04:45:42;;;;;;;13.50;7.03;;;7.20;93.10;;;;;;5051864;28;20435;-71
2023/03/29 04:48:08;;;;;;;13.70;7.90;;;7.30;95.40;;;;;;5051370;28;20382;-70
2023/03/29 04:50:35;;;;;;;13.50;7.67;;;7.20;95.70;;;;;;5050198;28;20395;-69
2023/03/29 04:53:01;;;;;;;14.32;8.15;;;7.20;97.90;;;;;;5051284;28;20393;-70
2023/03/29 04:55:26;;;;;;;17.03;7.80;;;7.30;97.50;;;;;;5051384;28;20392;-70
2023/03/29 04:57:52;;;;;;;13.23;8.43;;;7.10;96.70;;;;;;5051324;28;20408;-70
2023/03/29 05:00:25;;;;;;;13.68;7.88;;;7.00;99.70;;;;;;5051042;28;20901;-70
2023/03/29 05:02:52;;;;;;;13.70;8.25;;;7.10;99.90;;;;;;5050688;28;20484;-71
2023/03/29 05:05:17;;;;;;;13.75;8.43;;;7.10;99.90;;;;;;5050925;28;20862;-72
2023/03/29 05:07:44;;;;;;;13.88;8.40;;;7.20;99.90;;;;;;5050599;28;20389;-71
2023/03/29 05:10:10;;;;;;;18.45;9.00;;;7.00;99.90;;;;;;5049769;28;20385;-70
2023/03/29 05:12:36;;;;;;;12.75;7.70;;;7.00;99.90;;;;;;5050829;28;20749;-69
2023/03/29 05:15:06;;;;;;;14.25;9.02;;;7.30;98.30;;;;;;5050889;28;20873;-70
2023/03/29 05:17:33;;;;;;;15.73;9.00;;;7.20;97.10;;;;;;5051183;28;20832;-70
2023/03/29 05:19:58;;;;;;;11.95;8.02;;;7.10;99.50;;;;;;5050689;28;20385;-73
2023/03/29 05:22:24;;;;;;;13.27;8.80;;;7.20;98.60;;;;;;5050831;28;20424;-70
2023/03/29 05:24:51;;;;;;;13.38;8.60;;;7.10;97.50;;;;;;5051366;28;20393;-71
2023/03/29 05:27:17;;;;;;;14.53;8.50;;;7.10;97.60;;;;;;5050667;28;20745;-69
2023/03/29 05:29:46;;;;;;;16.35;8.55;;;7.20;98.80;;;;;;5050441;28;20373;-70
2023/03/29 05:32:12;;;;;;;12.23;8.80;;;7.20;97.40;;;;;;5050437;28;20738;-70
2023/03/29 05:34:38;;;;;;;13.00;8.30;;;7.20;94.60;;;;;;5050766;28;20373;-71
2023/03/29 05:37:04;;;;;;;14.82;7.78;;;7.10;93.10;;;;;;5063906;28;20377;-71
2023/03/29 05:39:32;;;;;;;13.00;8.02;;;7.30;95.30;;;;;;5065567;28;20411;-69
2023/03/29 05:41:58;;;;;;;13.13;8.05;;;7.50;89.70;;;;;;5045901;28;20394;-72
2023/03/29 05:44:24;;;;;;;11.80;7.73;;;7.50;90.00;;;;;;5056838;28;20891;-69
2023/03/29 05:46:49;;;;;;;17.50;7.75;;;7.30;88.40;;;;;;5055646;28;20390;-69
2023/03/29 05:49:15;;;;;;;13.50;7.80;;;7.30;90.80;;;;;;5052508;28;20381;-71
2023/03/29 05:51:41;;;;;;;12.60;8.00;;;7.30;89.10;;;;;;5050244;28;20446;-70
2023/03/29 05:54:07;;;;;;;16.13;7.45;;;7.50;90.60;;;;;;5051134;28;20862;-70
2023/03/29 05:56:32;;;;;;;13.00;8.00;;;7.40;88.00;;;;;;5054978;28;20385;-73
2023/03/29 05:58:58;;;;;;;13.17;7.40;;;7.30;91.10;;;;;;5054749;28;20412;-69
2023/03/29 06:01:24;;;;;;;11.50;7.20;;;7.50;88.80;;;;;;5054301;28;20413;-70
2023/03/29 06:03:50;;;;;;;11.48;7.25;;;7.60;87.00;;;;;;5053703;28;20911;-70
2023/03/29 06:06:16;;;;;;;12.52;7.30;;;7.70;82.90;;;;;;5056113;28;20396;-69
2023/03/29 06:08:42;;;;;;;12.60;7.50;;;7.60;84.10;;;;;;5055265;28;20866;-69
2023/03/29 06:11:10;;;;;;;14.05;7.40;;;7.50;83.20;;;;;;5054879;28;20407;-71
2023/03/29 06:13:37;;;;;;;12.25;6.93;;;7.70;83.10;;;;;;5058056;28;20432;-70
2023/03/29 06:16:06;;;;;;;12.50;6.25;;;7.80;80.10;;;;;;5056287;28;20408;-71
2023/03/29 06:18:32;;;;;;;12.50;6.85;;;7.90;79.20;;;;;;5056506;28;20385;-72
2023/03/29 06:20:57;;;;;;;12.75;6.68;;;7.80;79.20;;;;;;5050139;28;20401;-70
2023/03/29 06:23:23;;;;;;;12.80;6.73;;;7.80;78.00;;;;;;5032688;28;20407;-71
2023/03/29 06:25:50;;;;;;;12.18;6.40;;;8.00;76.30;;;;;;5041386;28;20442;-71
2023/03/29 06:28:16;;;;;;;10.80;6.43;;;8.00;74.20;;;;;;5053028;28;20398;-73
2023/03/29 06:30:42;;;;;;;12.13;6.50;;;7.90;74.40;;;;;;5047914;28;20409;-71
2023/03/29 06:33:09;;;;;;;14.55;6.93;;;7.90;73.70;;;;;;5048561;28;20409;-72
2023/03/29 06:35:35;;;;;;;9.27;5.95;;;7.90;74.80;;;;;;5053664;28;20385;-71
2023/03/29 06:38:02;;;;;;;11.75;6.00;;;7.90;73.20;;;;;;5037437;28;20489;-72
2023/03/29 06:40:27;;;;;;;11.25;6.20;;;8.10;71.60;;;;;;5052119;28;20399;-71
2023/03/29 06:42:58;;;;;;;9.23;5.83;;;8.20;70.00;;;;;;5054113;28;20401;-72
2023/03/29 06:45:24;;;;;;;13.10;6.20;;;8.30;69.40;;;;;;5053731;28;20396;-72
2023/03/29 06:47:50;;;;;;;10.05;5.80;;;8.30;67.60;;;;;;5053104;28;20417;-70
2023/03/29 06:50:16;;;;;;;9.43;5.82;;;8.30;66.50;;;;;;5034825;28;20497;-70
2023/03/29 06:52:43;;;;;;;10.13;5.43;;;8.50;65.40;;;;;;5050639;28;20397;-71
2023/03/29 06:55:10;;;;;;;11.75;5.80;;;8.50;66.10;;;;;;5051678;28;20404;-70
2023/03/29 06:57:37;;;;;;;10.13;5.45;;;8.60;61.40;;;;;;5051176;28;20473;-72
2023/03/29 07:00:14;;;;;;;13.23;5.57;;;8.60;64.70;;;;;;5051655;28;20390;-70
2023/03/29 07:02:40;;;;;;;9.43;5.57;;;8.70;63.10;;;;;;5053457;28;20397;-71
2023/03/29 07:05:10;;;;;;;11.23;5.22;;;8.70;62.60;;;;;;5059758;28;20382;-72
2023/03/29 07:08:29;;;;;;;8.70;5.20;;;8.90;57.50;;;;;;5064917;28;20389;-71
2023/03/29 07:10:27;;;;;;;10.13;5.23;;;8.90;57.50;;;;;;5047071;28;20451;-70
2023/03/29 07:12:53;;;;;;;10.50;5.60;;;8.70;60.10;;;;;;5051063;28;20393;-69
2023/03/29 07:15:20;;;;;;;11.80;5.43;;;8.80;58.50;;;;;;5051392;28;20428;-69
2023/03/29 07:17:47;;;;;;;10.75;5.20;;;9.00;57.00;;;;;;5050555;28;20940;-71
2023/03/29 07:20:13;;;;;;;8.93;5.47;;;9.10;55.60;;;;;;5051002;28;20893;-72
2023/03/29 07:22:40;;;;;;;8.07;5.60;;;9.10;55.30;;;;;;5048916;28;20797;-69
2023/03/29 07:25:09;;;;;;;10.48;5.45;;;9.30;52.30;;;;;;5048010;28;20488;-70
2023/03/29 07:27:36;;;;;;;10.73;5.93;;;9.20;53.10;;;;;;5037234;28;20539;-71
2023/03/29 07:30:02;;;;;;;11.02;5.50;;;9.20;53.90;;;;;;5046945;28;20402;-70
2023/03/29 07:32:30;;;;;;;13.85;6.10;;;9.30;52.90;;;;;;5039161;28;20428;-70
2023/03/29 07:34:55;;;;;;;13.70;6.93;;;9.30;51.80;;;;;;5050772;28;20408;-71
2023/03/29 07:37:21;;;;;;;9.90;6.30;;;9.40;51.90;;;;;;5050763;28;20870;-73
2023/03/29 07:39:46;;;;;;;11.97;6.50;;;9.40;50.10;;;;;;5049243;28;20400;-71
2023/03/29 07:42:12;;;;;;;11.70;6.40;;;9.30;53.30;;;;;;5050212;28;20405;-73
2023/03/29 07:44:37;;;;;;;8.95;5.72;;;9.50;50.10;;;;;;5049687;28;20755;-71
2023/03/29 07:47:04;;;;;;;10.23;6.00;;;9.60;49.00;;;;;;5049982;28;20385;-71
2023/03/29 07:49:30;;;;;;;11.13;6.43;;;9.60;48.50;;;;;;5047417;28;20388;-70
2023/03/29 07:51:55;;;;;;;12.35;6.00;;;9.60;49.20;;;;;;5049320;28;20382;-71
2023/03/29 07:54:21;;;;;;;8.75;5.70;;;9.60;48.90;;;;;;5048985;28;20408;-71
2023/03/29 07:56:46;;;;;;;11.38;5.70;;;9.90;46.00;;;;;;5049775;28;20431;-71
2023/03/29 07:59:12;;;;;;;11.60;5.67;;;9.80;47.80;;;;;;5049382;28;20401;-71
2023/03/29 08:01:39;;;;;;;9.25;5.50;;;9.90;47.90;;;;;;5050141;28;20389;-71
2023/03/29 08:04:06;;;;;;;11.90;6.18;;;9.80;50.50;;;;;;5050414;28;20404;-71
2023/03/29 08:06:32;;;;;;;11.45;7.07;;;9.80;50.90;;;;;;5050868;28;21023;-71
2023/03/29 08:08:58;;;;;;;10.38;6.25;;;9.60;53.60;;;;;;5047311;28;20849;-71
2023/03/29 08:11:24;;;;;;;11.07;7.00;;;9.60;55.00;;;;;;5035227;28;20391;-70
2023/03/29 08:13:50;;;;;;;10.00;6.70;;;9.60;55.20;;;;;;5035636;28;20416;-69
2023/03/29 08:16:16;;;;;;;12.60;6.50;;;9.70;53.40;;;;;;5050303;28;20405;-71
2023/03/29 08:18:42;;;;;;;11.50;6.78;;;9.70;54.20;;;;;;5051759;28;20390;-71
2023/03/29 08:21:08;;;;;;;15.10;6.70;;;9.70;54.60;;;;;;5051664;28;20870;-71
2023/03/29 08:23:34;;;;;;;14.23;6.47;;;9.90;53.70;;;;;;5052202;28;20413;-70
2023/03/29 08:26:00;;;;;;;15.95;7.90;;;10.20;51.40;;;;;;5053046;28;20388;-72
2023/03/29 08:28:26;;;;;;;23.52;7.82;;;10.30;51.40;;;;;;5052570;28;20404;-71
2023/03/29 08:30:52;;;;;;;12.87;6.00;;;10.50;48.70;;;;;;5040378;28;20876;-73
2023/03/29 08:33:17;;;;;;;11.20;5.70;;;10.50;47.90;;;;;;5051046;28;20462;-71
2023/03/29 08:35:43;;;;;;;12.90;6.13;;;10.70;47.70;;;;;;5051923;28;20428;-71
2023/03/29 08:38:09;;;;;;;11.10;5.87;;;10.60;47.20;;;;;;5051880;28;20395;-70
2023/03/29 08:40:36;;;;;;;14.57;5.82;;;10.50;47.10;;;;;;5051588;28;20417;-72
2023/03/29 08:43:05;;;;;;;12.13;6.57;;;10.30;49.10;;;;;;5051430;28;20420;-72
2023/03/29 08:45:37;;;;;;;16.92;7.00;;;10.30;50.60;;;;;;5049839;28;20393;-71
2023/03/29 08:48:25;;;;;;;8.38;5.57;;;10.40;50.30;;;;;;5029493;28;20395;-71
2023/03/29 08:50:54;;;;;;;15.52;6.78;;;10.40;48.50;;;;;;5044628;28;20417;-72
2023/03/29 08:53:43;;;;;;;12.20;4.65;;;10.40;50.00;;;;;;5048688;28;20394;-72
2023/03/29 08:56:13;;;;;;;14.10;6.05;;;10.70;47.40;;;;;;5051550;28;20439;-71
2023/03/29 08:58:42;;;;;;;9.98;5.20;;;11.00;45.30;;;;;;5052247;28;20853;-72
2023/03/29 09:01:10;;;;;;;13.07;6.25;;;11.20;43.50;;;;;;5054549;28;20412;-74
2023/03/29 09:04:01;;;;;;;12.00;6.28;;;11.20;42.40;;;;;;5055489;28;20409;-76
2023/03/29 09:06:27;;;;;;;11.35;7.15;;;10.80;46.20;;;;;;5053649;28;20382;-72
2023/03/29 09:08:54;;;;;;;16.52;6.60;;;10.70;47.10;;;;;;5051647;28;21483;-73
2023/03/29 09:11:23;;;;;;;15.73;6.00;;;10.80;45.60;;;;;;5056879;28;20862;-72
2023/03/29 09:14:15;;;;;;;15.05;6.35;;;10.90;44.90;;;;;;5051082;28;20402;-72
2023/03/29 09:16:58;;;;;;;13.55;6.28;;;11.30;41.70;;;;;;5038823;22;20427;-75
2023/03/29 09:19:37;;;;;;;21.33;7.68;;;11.20;43.70;;;;;;5032004;28;20375;-75
2023/03/29 09:22:18;;;;;;;13.23;6.53;;;11.00;42.90;;;;;;5031094;28;20399;-75
2023/03/29 09:25:31;;;;;;;11.73;6.35;;;11.40;41.50;;;;;;5034828;28;20915;-75
2023/03/29 09:28:04;;;;;;;10.00;6.38;;;12.00;37.20;;;;;;5009113;28;20393;-75
2023/03/29 09:30:41;;;;;;;13.30;6.35;;;12.30;36.00;;;;;;5030079;28;20391;-75
2023/03/29 09:33:22;;;;;;;16.03;6.43;;;12.70;32.90;;;;;;5018762;28;20440;-76
2023/03/29 09:36:13;;;;;;;16.48;7.28;;;12.70;32.90;;;;;;5030485;28;20395;-74
2023/03/29 09:38:42;;;;;;;12.98;7.20;;;12.80;33.10;;;;;;4998262;28;20413;-76
2023/03/29 09:41:30;;;;;;;13.05;6.53;;;12.70;33.30;;;;;;5011465;28;20785;-76
2023/03/29 09:43:59;;;;;;;13.70;6.43;;;12.90;33.30;;;;;;5013107;28;20419;-75
2023/03/29 09:46:36;;;;;;;15.20;6.63;;;13.40;32.30;;;;;;5013888;28;20392;-76
2023/03/29 09:49:05;;;;;;;15.00;6.20;;;13.90;28.00;;;;;;5016250;28;20381;-76
2023/03/29 09:51:33;;;;;;;11.02;6.70;;;13.60;29.00;;;;;;5026811;28;20389;-75
2023/03/29 09:53:59;;;;;;;11.43;6.25;;;13.50;29.90;;;;;;5028778;28;20456;-76
2023/03/29 09:56:26;;;;;;;10.40;6.22;;;13.70;28.50;;;;;;5026124;28;20385;-76
2023/03/29 09:58:51;;;;;;;11.80;6.38;;;13.70;28.40;;;;;;5015521;28;20389;-76
2023/03/29 10:01:17;;;;;;;12.13;6.38;;;13.90;27.70;;;;;;5014595;28;20476;-76
2023/03/29 10:03:52;;;;;;;17.70;6.20;;;13.60;29.70;;;;;;5012743;28;20400;-76
2023/03/29 10:06:22;;;;;;;17.25;6.80;;;13.50;30.80;;;;;;5013038;28;20472;-75
2023/03/29 10:08:57;;;;;;;16.23;6.90;;;13.50;29.40;;;;;;5011269;28;20550;-75
2023/03/29 10:11:31;;;;;;;11.85;6.20;;;13.70;29.60;;;;;;5011859;28;20396;-76
2023/03/29 10:14:11;;;;;;;16.20;6.75;;;13.80;28.20;;;;;;5011729;28;20392;-76
2023/03/29 10:16:44;;;;;;;12.65;6.80;;;14.30;27.00;;;;;;5011294;28;20401;-76
2023/03/29 10:19:33;;;;;;;9.98;6.03;;;13.90;27.70;;;;;;5012536;28;20400;-76
2023/03/29 10:22:03;;;;;;;12.93;7.10;;;14.10;28.50;;;;;;5011850;28;20434;-75
2023/03/29 10:24:29;;;;;;;14.60;6.50;;;14.80;25.90;;;;;;5012294;28;20462;-76
2023/03/29 10:27:02;;;;;;;13.35;6.97;;;14.30;27.00;;;;;;5013259;28;20944;-76
2023/03/29 10:29:35;;;;;;;13.50;6.63;;;14.40;27.50;;;;;;5011078;28;20397;-75
2023/03/29 10:32:01;;;;;;;11.40;6.80;;;14.40;27.40;;;;;;5011750;28;20738;-75
2023/03/29 10:34:27;;;;;;;14.73;7.05;;;14.50;27.30;;;;;;5011822;28;20404;-75
2023/03/29 10:37:02;;;;;;;12.95;6.60;;;14.80;25.80;;;;;;5010040;28;20488;-75
2023/03/29 10:39:32;;;;;;;14.18;6.80;;;14.40;27.20;;;;;;5011603;28;20381;-76
2023/03/29 10:41:59;;;;;;;13.45;7.07;;;14.70;26.50;;;;;;5014963;28;20870;-76
2023/03/29 10:44:31;;;;;;;13.10;6.85;;;14.90;26.20;;;;;;5013705;28;20400;-76
2023/03/29 10:47:18;;;;;;;15.55;6.90;;;15.40;24.10;;;;;;5014754;28;20734;-76
2023/03/29 10:49:48;;;;;;;12.65;7.00;;;15.30;24.50;;;;;;5014866;28;20467;-75
2023/03/29 10:52:16;;;;;;;14.32;7.10;;;15.60;24.40;;;;;;5014792;28;20389;-76
2023/03/29 10:54:42;;;;;;;14.32;7.05;;;15.60;23.90;;;;;;5015156;28;20447;-76
2023/03/29 10:57:14;;;;;;;13.23;6.45;;;15.90;23.60;;;;;;5015263;28;20387;-75
2023/03/29 10:59:42;;;;;;;15.90;6.18;;;15.80;23.00;;;;;;5015562;28;20369;-77
2023/03/29 11:02:14;;;;;;;14.93;6.20;;;16.10;22.00;;;;;;5014919;28;20447;-75
2023/03/29 11:05:08;;;;;;;14.98;6.55;;;15.90;23.10;;;;;;5014989;28;20406;-76
2023/03/29 11:07:48;;;;;;;11.52;6.50;;;16.20;22.70;;;;;;5014636;28;20756;-76
2023/03/29 11:10:20;;;;;;;10.65;5.90;;;15.90;23.20;;;;;;5013919;28;20389;-75
2023/03/29 11:12:58;;;;;;;14.07;5.80;;;16.30;23.00;;;;;;5014791;28;20776;-77
2023/03/29 11:15:45;;;;;;;9.90;6.13;;;16.70;20.80;;;;;;5015160;28;20476;-76
2023/03/29 11:18:29;;;;;;;12.60;5.82;;;16.50;22.40;;;;;;5014659;28;20424;-76
2023/03/29 11:21:26;;;;;;;11.73;6.10;;;16.60;21.90;;;;;;5015432;28;20471;-76
2023/03/29 11:24:30;;;;;;;15.77;5.70;;;16.80;21.50;;;;;;4964309;28;20423;-75
2023/03/29 11:27:37;;;;;;;12.30;5.95;;;17.20;20.80;;;;;;5017111;28;20412;-76
2023/03/29 11:30:22;;;;;;;12.95;6.40;;;17.30;19.90;;;;;;4938549;29;20406;-76
2023/03/29 11:33:15;;;;;;;10.60;5.20;;;17.10;20.50;;;;;;5013593;28;20400;-75
2023/03/29 11:36:10;;;;;;;14.43;6.20;;;16.90;21.00;;;;;;5016946;28;20388;-74
2023/03/29 11:39:06;;;;;;;11.65;6.22;;;16.60;21.90;;;;;;5008126;28;20696;-76
2023/03/29 11:41:39;;;;;;;12.23;6.40;;;16.30;23.90;;;;;;5020457;28;20385;-76
2023/03/29 11:44:15;;;;;;;10.23;6.13;;;16.10;24.60;;;;;;5016030;28;20462;-75
2023/03/29 11:46:58;;;;;;;13.40;6.25;;;16.10;24.40;;;;;;5015290;28;20400;-77
2023/03/29 11:49:44;;;;;;;17.60;6.35;;;16.40;23.90;;;;;;5015066;28;20400;-76
2023/03/29 11:52:35;;;;;;;11.85;6.25;;;16.40;24.00;;;;;;5013833;28;20380;-74
2023/03/29 11:55:08;;;;;;;9.43;5.85;;;16.50;24.70;;;;;;5014830;28;20397;-77
2023/03/29 11:57:52;;;;;;;16.25;5.93;;;16.40;24.30;;;;;;5015960;28;20825;-76
2023/03/29 12:00:34;;;;;;;10.73;5.75;;;16.40;24.10;;;;;;5015048;28;20538;-76
2023/03/29 12:03:11;;;;;;;13.98;6.07;;;16.30;24.40;;;;;;5015185;28;20400;-75
2023/03/29 12:05:44;;;;;;;14.35;5.15;;;16.20;25.70;;;;;;5014237;28;20393;-77
2023/03/29 12:08:23;;;;;;;14.33;5.77;;;16.60;24.80;;;;;;5014448;28;20741;-75
2023/03/29 12:10:59;;;;;;;10.60;5.85;;;17.10;22.80;;;;;;5013699;28;20480;-76
2023/03/29 12:13:31;;;;;;;10.67;5.97;;;17.30;22.30;;;;;;5015084;28;20388;-76
2023/03/29 12:16:05;;;;;;;9.10;5.15;;;17.40;21.90;;;;;;5014789;28;20484;-76
2023/03/29 12:18:44;;;;;;;13.82;5.88;;;17.60;21.40;;;;;;5022207;28;20381;-75
2023/03/29 12:21:17;;;;;;;15.57;5.22;;;17.50;21.80;;;;;;5031807;28;20388;-75
2023/03/29 12:23:44;;;;;;;11.60;5.18;;;17.50;21.90;;;;;;5034265;28;20552;-75
2023/03/29 12:26:44;;;;;;;10.43;5.10;;;17.40;22.40;;;;;;5026599;28;20453;-75
2023/03/29 12:29:15;;;;;;;10.60;4.10;;;17.60;22.10;;;;;;5021435;28;20389;-75
2023/03/29 12:31:47;;;;;;;9.65;3.95;;;17.80;22.20;;;;;;5030331;28;20407;-76
2023/03/29 12:34:41;;;;;;;5.45;3.78;;;17.90;21.60;;;;;;5027422;28;20380;-76
2023/03/29 12:37:13;;;;;;;8.48;3.88;;;18.30;20.50;;;;;;5025078;28;20384;-76
2023/03/29 12:39:39;;;;;;;9.70;4.10;;;18.50;20.10;;;;;;5024487;28;20408;-76
2023/03/29 12:42:20;;;;;;;10.03;3.60;;;18.50;20.40;;;;;;5022600;28;20400;-76
2023/03/29 12:45:04;;;;;;;7.90;3.70;;;18.60;20.20;;;;;;5012616;28;20420;-76
2023/03/29 12:47:36;;;;;;;10.18;4.03;;;18.80;20.10;;;;;;5015374;28;20409;-75
2023/03/29 12:50:03;;;;;;;8.80;4.32;;;19.20;19.30;;;;;;5021320;28;20377;-76
2023/03/29 12:52:34;;;;;;;10.60;3.72;;;19.20;19.30;;;;;;5011977;28;20385;-77
2023/03/29 12:55:16;;;;;;;7.20;3.13;;;19.20;19.30;;;;;;5011975;28;20874;-75
2023/03/29 12:57:46;;;;;;;8.10;3.40;;;18.90;19.80;;;;;;5012609;28;20455;-75
2023/03/29 13:00:43;;;;;;;7.15;3.38;;;18.90;19.90;;;;;;5012394;28;20373;-75
2023/03/29 13:03:26;;;;;;;5.00;3.10;;;18.60;20.60;;;;;;5001681;28;20439;-76
2023/03/29 13:06:01;;;;;;;7.60;3.70;;;18.50;20.50;;;;;;5014389;28;20803;-75
2023/03/29 13:08:35;;;;;;;7.63;3.40;;;18.50;20.20;;;;;;5012608;28;20800;-76